Date,TemperatureHighF,TemperatureAvgF,TemperatureLowF,DewpointHighF,DewpointAvgF,DewpointLowF,HumidityHigh,HumidityAvg,HumidityLow,PressureMaxIn,PressureMinIn,WindSpeedMaxMPH,WindSpeedAvgMPH,GustSpeedMaxMPH,PrecipitationSumIn
2014-4-13,42.7,36.8,32.3,40.2,30.3,23.8,91,77,68,29.99,29.82,39,19,39,0.42
2014-4-14,35.9,30.3,25.6,24.1,17.2,11.9,75,59,40,30.19,29.99,35,19,35,0.00
2014-4-15,39.4,29.5,16.6,22.2,14.3,7.6,78,55,35,30.24,29.99,21,8,21,0.00
2014-4-16,46.9,35.6,29.3,38.5,28.5,21.7,93,76,60,30.04,29.75,29,14,29,0.15
2014-4-17,41.0,31.6,22.6,30.0,25.7,19.3,88,79,61,30.36,30.05,29,10,29,0.02
2014-4-18,57.5,42.3,27.5,40.1,32.9,25.0,92,71,49,30.36,30.09,33,10,33,0.00
2014-4-19,72.8,57.0,45.5,52.3,43.6,33.7,82,62,47,30.09,29.92,40,14,40,0.00
2014-4-20,74.3,62.1,48.1,55.8,49.3,37.9,92,67,30,30.01,29.85,17,3,17,0.01
2014-4-21,63.6,57.0,45.1,55.4,45.3,32.8,95,67,45,30.10,29.83,36,13,36,0.08
2014-4-22,61.4,49.3,34.0,39.8,34.7,28.6,83,59,40,30.17,30.00,19,6,19,0.00
2014-4-23,50.6,44.7,41.7,38.5,36.7,32.3,83,74,53,30.04,29.81,29,14,29,0.26
2014-4-24,53.3,45.1,42.1,45.8,41.7,38.4,95,88,74,29.83,29.68,23,6,23,0.63
2014-4-25,67.9,52.5,38.6,46.0,40.6,35.2,94,68,35,29.86,29.72,21,6,21,0.01
2014-4-26,56.8,47.6,38.6,41.3,36.8,33.5,83,67,46,29.94,29.76,28,10,28,0.03
2014-4-27,48.9,44.0,40.5,44.3,39.2,33.3,93,83,64,29.78,29.35,36,15,36,0.43
2014-4-28,47.0,44.0,42.2,44.2,41.8,39.5,94,92,89,29.61,29.47,31,13,31,1.38
2014-4-29,42.1,38.9,35.7,39.7,36.2,33.7,93,90,84,29.82,29.59,33,14,33,0.45
2014-4-30,45.0,40.1,35.9,40.3,37.1,33.8,97,89,81,29.83,29.78,30,16,30,0.13
2014-5-1,45.8,42.0,38.4,41.2,38.8,36.0,92,88,82,29.89,29.77,27,14,27,0.07
2014-5-2,59.0,47.7,35.3,48.3,39.9,32.9,92,76,51,29.88,29.64,32,12,38,0.00
2014-5-3,58.7,49.6,38.8,42.5,37.7,34.3,86,65,42,29.99,29.75,29,10,29,0.00
2014-5-4,54.0,45.9,37.8,36.9,31.7,28.6,76,59,38,30.14,29.94,22,6,22,0.00
2014-5-5,65.4,54.7,40.9,43.9,39.2,34.6,85,57,42,29.98,29.86,17,3,17,0.00
2014-5-6,67.7,57.1,44.7,45.5,40.8,36.0,74,56,40,29.91,29.67,33,13,33,0.00
2014-5-7,73.2,60.7,52.8,58.4,48.6,42.0,76,64,59,29.69,29.54,23,10,23,0.00
2014-5-8,63.8,57.5,51.3,62.0,54.5,48.6,95,90,77,29.70,29.44,25,7,25,1.09
2014-5-9,60.2,51.4,46.0,51.1,44.6,40.1,98,79,49,29.81,29.53,31,13,31,0.00
2014-5-10,68.0,55.1,42.0,55.1,48.1,39.8,94,79,54,29.85,29.65,33,8,33,0.21
2014-5-11,67.0,56.3,46.3,59.5,52.2,45.0,96,87,71,29.87,29.64,21,5,21,1.48
2014-5-12,59.0,50.4,45.2,57.9,48.9,42.5,96,95,90,29.91,29.64,32,14,32,0.05
2014-5-13,53.9,47.3,39.9,42.5,39.5,35.9,90,75,51,30.23,29.89,32,16,32,0.00
2014-5-14,58.4,46.7,34.8,40.8,35.5,31.9,94,67,43,30.24,30.16,28,8,28,0.00
2014-5-15,47.2,42.6,36.9,35.3,32.1,28.6,83,67,52,30.22,30.14,25,12,25,0.17
2014-5-16,53.2,45.4,38.6,34.5,31.0,26.0,81,59,36,30.14,30.06,21,5,21,0.00
2014-5-17,67.6,53.5,36.6,42.1,34.6,29.1,80,52,25,30.09,29.98,24,6,24,0.00
2014-5-18,73.1,61.6,47.5,46.0,40.3,34.6,67,47,30,30.06,29.89,32,12,32,0.00
2014-5-19,64.3,59.7,54.5,60.4,52.1,43.3,95,77,51,29.93,29.67,34,13,34,0.24
2014-5-20,73.2,63.7,51.2,65.4,57.8,49.8,97,82,59,29.85,29.70,15,2,15,0.00
2014-5-21,66.9,59.3,49.4,56.1,48.1,43.9,90,67,50,30.12,29.83,26,12,26,0.00
2014-5-22,73.7,59.8,43.5,48.9,43.7,40.5,91,59,32,30.20,30.10,19,3,19,0.00
2014-5-23,79.4,65.4,46.7,50.7,46.3,43.1,92,54,32,30.20,30.05,13,4,19,0.00
2014-5-24,82.2,69.9,56.2,53.0,47.1,42.4,61,45,31,30.10,29.94,25,8,25,0.00
2014-5-25,80.2,69.4,55.5,65.4,57.2,44.8,79,66,50,29.99,29.81,24,7,24,0.00
2014-5-26,78.9,70.8,61.9,67.3,63.9,59.5,94,80,63,29.88,29.82,21,6,21,0.02
2014-5-27,77.3,70.0,63.4,68.6,64.7,61.1,96,84,65,29.94,29.83,18,5,18,0.33
2014-5-28,80.3,69.5,58.2,66.2,59.7,55.7,95,73,45,30.02,29.92,16,3,16,0.00
2014-5-29,85.7,72.4,54.7,57.1,51.9,46.6,90,53,27,30.06,29.93,21,5,21,0.00
2014-5-30,88.3,78.8,67.3,69.1,63.7,53.5,84,61,43,30.05,29.90,25,8,25,0.00
2014-5-31,85.5,75.3,68.0,72.3,66.8,63.7,95,76,56,29.98,29.75,47,7,47,0.48
2014-6-1,74.2,67.2,64.2,69.2,64.9,61.5,95,92,81,29.84,29.67,23,5,23,1.87
2014-6-2,76.1,68.4,61.3,66.6,61.8,55.5,96,81,56,29.88,29.64,33,13,34,0.02
2014-6-3,73.2,64.8,54.3,61.5,57.4,52.2,95,78,58,29.97,29.77,14,3,14,0.00
2014-6-4,79.1,69.6,59.3,60.2,57.9,55.4,92,68,45,29.85,29.75,14,2,14,0.00
2014-6-5,70.4,65.2,60.4,63.0,60.2,56.8,94,84,69,29.88,29.74,32,8,32,0.18
2014-6-6,82.8,70.5,56.3,68.4,61.7,54.9,97,76,47,29.90,29.84,17,3,17,0.01
2014-6-7,68.1,59.3,54.0,60.7,54.7,51.2,93,85,75,30.05,29.84,27,8,27,0.27
2014-6-8,70.2,60.7,46.3,54.9,47.9,41.8,96,67,37,30.12,30.00,16,1,16,0.02
2014-6-9,68.9,61.8,55.3,58.2,54.7,49.9,92,78,65,30.02,29.92,12,2,13,0.19
2014-6-10,77.3,66.7,53.5,62.3,57.9,51.7,95,75,55,29.93,29.78,15,2,15,0.00
2014-6-11,82.6,72.4,60.7,64.4,59.2,56.7,87,65,45,29.82,29.59,24,8,24,0.03
2014-6-12,67.7,60.4,53.7,61.3,49.4,42.0,87,68,47,30.00,29.65,35,17,35,0.00
2014-6-13,77.3,64.9,48.3,52.1,45.5,41.8,83,52,31,30.04,29.81,21,6,21,0.00
2014-6-14,68.5,63.1,57.5,60.2,54.7,43.8,92,76,41,29.88,29.55,48,15,48,1.42
2014-6-15,75.8,65.6,58.4,62.6,58.8,55.7,96,80,53,29.80,29.45,29,11,29,1.04
2014-6-16,78.7,66.8,58.2,69.1,60.3,54.6,89,80,58,29.84,29.55,47,12,47,0.29
2014-6-17,75.5,69.5,60.5,68.6,64.2,58.1,94,83,73,29.77,29.54,35,6,40,0.01
2014-6-18,83.5,74.4,64.8,74.8,68.2,62.2,95,82,61,29.80,29.65,34,9,34,0.70
2014-6-19,73.8,70.3,65.1,70.2,67.4,63.3,95,91,85,29.90,29.72,33,9,33,0.78
2014-6-20,84.5,73.6,60.6,69.3,63.8,57.2,97,74,44,29.92,29.77,23,6,23,0.01
2014-6-21,85.1,75.3,63.9,67.7,64.1,60.1,94,70,46,29.86,29.77,13,2,13,0.00
2014-6-22,79.5,74.9,70.0,69.1,66.5,62.7,88,75,64,29.84,29.73,15,4,15,0.05
2014-6-23,78.4,71.5,63.3,66.5,62.3,58.7,95,74,53,29.86,29.76,18,6,18,0.00
2014-6-24,79.8,71.4,61.3,64.6,61.3,58.0,90,72,52,29.92,29.85,21,7,21,0.00
2014-6-25,79.5,68.6,61.0,64.2,61.2,58.2,93,78,54,30.01,29.92,13,3,13,0.00
2014-6-26,82.3,70.3,61.9,70.9,65.2,59.7,94,84,61,29.98,29.77,36,7,36,0.31
2014-6-27,80.1,73.4,66.5,71.7,68.1,64.2,94,84,72,29.80,29.65,25,11,28,0.00
2014-6-28,84.5,75.5,66.5,73.8,68.7,58.2,93,80,56,29.69,29.55,34,10,34,0.01
2014-6-29,85.5,73.7,61.8,67.5,61.7,56.7,91,69,39,29.73,29.64,31,9,31,0.00
2014-6-30,80.2,70.4,63.4,64.8,59.1,53.5,86,69,42,29.68,29.53,23,6,26,0.00
2014-7-1,70.5,63.3,54.9,60.8,56.0,50.7,89,78,66,29.87,29.53,35,15,35,0.04
2014-7-2,73.5,62.8,54.3,53.1,50.6,46.8,91,67,41,30.09,29.86,27,12,27,0.00
2014-7-3,76.9,64.8,51.5,55.3,50.1,46.9,88,62,37,30.18,30.09,15,2,15,0.00
2014-7-4,80.9,69.8,57.2,63.8,57.9,50.2,86,67,52,30.21,30.01,31,10,31,0.10
2014-7-5,84.0,74.0,66.1,72.3,66.4,61.0,91,78,61,30.05,29.80,27,12,27,0.00
2014-7-6,89.7,78.4,70.6,76.9,69.4,62.3,96,77,41,29.80,29.66,30,11,30,0.00
2014-7-7,87.0,73.7,62.4,69.1,64.4,58.1,95,74,50,29.75,29.58,40,8,40,0.00
2014-7-8,77.3,68.7,60.6,60.0,56.4,50.1,86,66,48,29.92,29.66,33,14,33,0.00
2014-7-9,79.8,67.6,52.8,60.4,54.4,49.2,91,65,40,29.98,29.91,20,4,20,0.00
2014-7-10,84.1,71.5,55.9,67.3,61.7,53.9,94,73,52,30.00,29.88,28,8,28,0.00
2014-7-11,84.1,75.1,66.9,74.7,68.3,62.0,93,80,67,29.94,29.85,31,10,31,0.24
2014-7-12,75.4,71.3,65.2,71.5,68.2,63.4,96,90,77,29.97,29.89,25,4,25,1.23
2014-7-13,77.7,69.5,59.3,64.9,59.2,53.1,96,72,46,29.96,29.87,23,7,23,0.00
2014-7-14,64.5,60.1,54.3,54.3,51.2,47.4,89,73,60,30.06,29.88,33,14,33,0.00
2014-7-15,69.4,61.0,51.6,53.8,51.1,48.2,91,71,50,30.11,30.00,28,9,28,0.00
2014-7-16,75.1,62.9,49.4,60.0,52.9,46.9,93,72,45,30.06,29.98,10,1,10,0.00
2014-7-17,78.6,66.1,52.4,62.4,56.2,50.4,94,73,47,30.01,29.95,14,2,17,0.00
2014-7-18,78.6,67.8,54.4,65.3,59.4,51.7,92,76,56,29.98,29.88,27,8,27,0.00
2014-7-19,80.5,70.6,62.6,67.4,63.5,59.3,90,79,60,29.89,29.81,25,8,25,0.00
2014-7-20,85.6,75.9,65.3,72.9,68.5,62.6,91,78,63,29.82,29.72,25,10,25,0.00
2014-7-21,88.8,78.5,69.0,78.7,73.0,66.6,93,84,71,29.81,29.70,26,9,26,0.00
2014-7-22,82.0,75.2,64.7,77.3,66.4,58.3,95,76,49,30.13,29.71,26,10,26,0.00
2014-7-23,80.9,69.7,56.5,61.5,57.7,53.3,91,68,45,30.22,30.10,12,3,12,0.00
2014-7-24,71.8,59.2,54.3,62.8,55.6,52.3,95,88,71,30.13,29.84,10,0,10,0.11
2014-7-25,81.4,73.0,64.1,73.5,67.3,61.0,95,83,72,29.83,29.68,29,8,29,0.25
2014-7-26,82.9,73.7,68.1,71.4,68.6,63.2,96,85,63,29.85,29.70,25,6,26,0.09
2014-7-27,73.0,67.2,61.8,63.5,59.7,56.1,89,77,68,30.11,29.80,32,14,32,0.00
2014-7-28,74.2,66.3,59.0,61.9,58.3,54.0,94,77,52,30.19,30.10,18,6,18,0.00
2014-7-29,76.2,63.7,53.0,60.3,55.4,50.8,93,76,50,30.15,30.03,17,5,17,0.00
2014-7-30,78.2,66.1,54.2,62.4,57.5,51.9,93,76,50,30.09,30.02,15,3,15,0.00
2014-7-31,81.6,68.4,53.9,63.7,57.6,51.9,95,72,42,30.03,29.96,10,1,12,0.00
2014-8-1,83.8,69.9,55.0,66.8,60.3,53.0,95,74,48,30.05,29.99,11,1,11,0.00
2014-8-2,83.8,71.6,58.5,67.5,62.6,56.4,94,75,48,30.09,30.02,12,2,12,0.00
2014-8-3,84.9,72.9,59.5,69.7,64.9,58.1,97,78,52,30.07,29.97,19,1,19,0.00
2014-8-4,79.5,70.6,60.9,70.3,64.5,56.4,95,82,58,30.03,29.97,16,3,16,0.00
2014-8-5,78.7,67.1,53.5,65.8,59.6,51.5,96,79,51,30.08,30.01,13,2,13,0.00
2014-8-6,79.5,69.7,60.0,66.2,62.2,58.0,94,78,57,30.05,29.97,17,3,17,0.00
2014-8-7,80.3,69.2,57.9,65.3,59.7,56.5,96,74,48,30.02,29.95,21,5,21,0.00
2014-8-8,78.8,70.2,64.3,66.2,63.7,60.8,95,81,60,30.04,29.97,19,4,19,0.05
2014-8-9,81.1,71.6,64.5,67.8,63.9,61.4,90,77,58,30.04,29.96,19,6,19,0.00
2014-8-10,79.8,71.3,65.3,71.3,66.4,62.2,94,85,69,30.01,29.94,19,5,19,0.29
2014-8-11,75.3,66.7,57.8,65.0,58.1,52.4,92,76,51,30.05,29.95,29,12,29,0.00
2014-8-12,76.5,64.7,51.4,59.9,55.0,49.2,93,73,47,30.09,30.00,24,7,24,0.00
2014-8-13,83.4,69.7,55.6,66.9,59.2,52.6,92,72,47,30.07,29.99,12,2,14,0.00
2014-8-14,81.3,70.0,59.0,67.8,63.0,56.4,92,79,59,30.05,29.91,18,4,18,0.00
2014-8-15,80.5,72.2,66.4,71.0,67.2,64.2,95,85,71,29.94,29.80,18,6,18,0.06
2014-8-16,83.0,72.7,65.1,72.1,68.3,63.3,97,87,68,29.86,29.78,14,2,14,0.00
2014-8-17,87.2,74.2,67.7,74.1,70.0,66.0,96,88,65,29.90,29.75,23,3,23,0.12
2014-8-18,87.8,74.8,66.4,70.9,66.4,62.9,97,77,47,29.78,29.59,26,5,27,0.01
2014-8-19,82.7,71.9,61.6,69.0,65.1,60.1,96,81,58,29.75,29.63,22,6,22,0.00
2014-8-20,84.9,72.5,60.5,71.1,66.6,59.4,97,83,57,29.81,29.72,20,5,20,0.01
2014-8-21,88.8,77.5,69.2,79.5,72.6,67.1,96,85,67,29.79,29.64,21,7,21,0.70
2014-8-22,85.0,75.6,68.6,73.2,70.0,66.8,97,84,65,29.94,29.78,9,1,9,0.00
2014-8-23,80.6,72.4,66.1,74.5,69.5,64.6,97,91,79,29.94,29.77,27,4,27,0.15
2014-8-24,87.9,77.9,66.9,75.8,71.8,64.7,94,82,63,29.81,29.68,22,8,22,0.00
2014-8-25,74.2,67.0,60.4,64.7,59.5,54.4,96,78,60,30.06,29.79,19,5,19,0.00
2014-8-26,72.1,61.9,51.8,59.4,53.9,48.7,92,76,57,30.20,30.05,15,3,15,0.00
2014-8-27,75.7,69.7,59.1,61.8,60.0,57.1,93,72,56,30.18,30.05,18,5,18,0.00
2014-8-28,70.7,64.8,60.0,67.8,62.5,57.7,96,92,86,30.07,29.80,17,7,17,0.20
2014-8-29,77.3,70.1,65.2,71.5,67.4,63.5,97,91,81,29.80,29.68,19,6,19,0.09
2014-8-30,72.6,66.4,61.5,66.3,63.8,59.8,97,91,76,29.85,29.73,16,6,16,0.31
2014-8-31,82.5,70.1,60.0,71.7,65.4,58.8,96,86,66,29.82,29.56,26,9,31,0.18
2014-9-1,76.6,67.9,59.0,64.6,61.4,56.7,96,82,51,29.79,29.57,21,6,21,0.05
2014-9-2,78.4,68.3,57.4,63.3,58.5,55.1,93,73,48,29.88,29.78,17,5,25,0.01
2014-9-3,82.6,70.3,34.4,74.2,65.5,30.1,93,85,75,29.87,29.59,31,8,31,0.27
2014-9-4,85.0,74.6,63.9,76.8,69.5,55.4,95,85,72,29.90,29.52,21,8,23,0.00
2014-9-5,63.8,57.4,48.9,55.7,51.8,46.9,93,82,67,30.20,29.90,20,8,20,0.00
2014-9-6,77.3,60.6,46.8,56.7,51.0,44.8,94,74,41,30.22,30.12,17,6,18,0.01
2014-9-7,76.0,62.1,48.3,58.7,52.6,46.1,94,73,51,30.14,29.95,21,8,21,0.00
2014-9-8,76.5,66.9,57.3,62.6,58.7,52.7,91,76,60,29.95,29.75,26,10,34,0.01
2014-9-9,71.8,64.9,57.1,68.7,63.3,55.9,97,95,88,29.79,29.65,14,5,14,0.65
2014-9-10,65.9,53.6,48.1,65.0,50.8,44.7,97,90,82,30.11,29.63,28,11,30,0.35
2014-9-11,54.7,49.2,44.2,46.3,42.8,40.3,90,79,63,30.39,30.11,19,6,19,0.00
2014-9-12,54.0,46.5,36.6,44.1,40.9,34.7,93,82,54,30.45,30.37,21,4,23,0.02
2014-9-13,61.9,48.3,33.5,45.1,39.2,32.0,96,73,47,30.38,30.14,26,7,26,0.01
2014-9-14,64.3,52.9,42.3,52.5,44.6,40.2,94,75,43,30.15,30.09,14,5,15,0.02
2014-9-15,61.3,52.5,41.5,49.7,45.0,39.3,95,78,47,30.23,30.12,15,5,19,0.22
2014-9-16,69.1,54.1,38.2,51.9,45.1,36.6,95,74,46,30.23,29.96,19,5,19,0.00
2014-9-17,76.0,62.9,51.3,61.2,54.6,48.5,92,75,53,29.97,29.88,10,3,11,0.00
2014-9-18,75.3,61.9,49.0,59.8,53.1,47.1,95,75,49,30.03,29.91,19,6,27,0.01
2014-9-19,84.5,69.6,56.5,71.1,62.3,50.8,91,79,57,29.92,29.59,30,10,30,0.00
2014-9-20,81.8,66.6,56.4,65.9,59.0,51.2,91,78,44,29.88,29.64,49,10,49,0.15
2014-9-21,65.3,56.4,47.4,53.2,50.0,45.0,93,80,62,30.23,29.88,19,9,24,0.00
2014-9-22,74.8,57.2,40.9,55.2,48.2,39.6,96,75,43,30.27,30.12,20,4,21,0.01
2014-9-23,71.5,58.8,48.7,57.6,52.3,45.9,92,80,53,30.17,30.07,26,8,26,0.46
2014-9-24,70.3,62.6,57.5,62.4,57.7,53.9,92,84,73,30.10,30.03,24,10,24,0.14
2014-9-25,82.3,67.5,56.0,67.0,60.8,54.5,96,81,55,30.14,30.06,16,5,16,0.00
2014-9-26,81.8,68.2,54.6,64.8,59.3,52.9,94,75,51,30.10,29.99,22,7,22,0.00
2014-9-27,81.8,70.1,61.9,63.8,60.5,58.0,88,73,48,30.08,29.99,24,8,28,0.00
2014-9-28,82.3,68.7,56.6,63.0,58.9,54.9,95,73,45,30.08,29.97,16,5,17,0.00
2014-9-29,67.6,58.9,49.3,59.4,53.7,45.9,94,83,69,30.08,29.99,15,7,17,0.00
2014-9-30,62.6,52.3,43.5,56.4,48.4,41.3,93,87,74,30.04,29.77,23,11,26,0.03
2014-10-1,67.7,59.3,54.8,60.2,55.9,52.4,94,89,76,29.78,29.69,19,8,20,0.06
2014-10-2,57.8,52.6,45.6,56.3,51.1,44.0,97,95,91,29.86,29.75,17,5,17,0.34
2014-10-3,50.3,43.2,38.4,48.2,32.8,25.5,96,67,50,29.95,29.76,37,20,43,0.01
2014-10-4,49.1,39.7,33.1,33.4,29.9,27.0,87,69,49,29.91,29.74,30,12,31,0.00
2014-10-5,54.7,43.9,32.2,41.8,37.0,28.5,89,77,59,29.74,29.58,22,7,23,0.00
2014-10-6,64.9,49.7,35.6,43.8,38.1,32.4,89,67,36,29.60,29.46,32,12,34,0.00
2014-10-7,60.9,53.2,45.8,46.0,41.1,36.5,84,65,41,29.91,29.51,33,12,33,0.00
2014-10-8,61.6,50.3,40.2,39.5,36.5,34.2,81,61,41,30.11,29.91,27,8,27,0.01
2014-10-9,55.6,45.0,34.4,39.2,33.3,29.7,90,65,42,30.25,30.11,19,4,19,0.00
2014-10-10,53.9,41.8,28.5,38.1,32.3,25.9,92,71,46,30.32,30.21,16,4,16,0.00
2014-10-11,57.3,36.3,26.0,36.0,29.9,24.0,94,79,44,30.25,29.97,13,3,14,0.00
2014-10-12,64.9,50.9,39.3,49.0,41.3,33.5,89,72,40,29.97,29.67,29,12,29,0.00
2014-10-13,53.9,51.6,49.9,49.8,48.4,45.8,93,89,84,29.79,29.72,26,10,26,0.00
2014-10-14,65.5,53.2,43.7,47.6,41.8,35.5,92,68,37,29.99,29.78,31,13,31,0.00
2014-10-15,67.7,49.4,32.3,45.1,37.0,29.7,93,66,33,30.04,29.83,8,2,8,0.00
2014-10-16,73.9,56.6,42.4,50.4,42.3,35.5,78,61,31,29.84,29.57,32,10,32,0.00
2014-10-17,56.9,48.7,40.3,47.2,42.1,37.1,89,78,70,30.12,29.63,36,18,36,0.00
2014-10-18,54.8,43.9,37.3,43.2,38.8,35.0,93,83,63,30.26,30.08,17,4,17,0.00
2014-10-19,73.8,55.7,38.6,49.7,43.2,35.4,92,65,40,30.08,29.79,25,10,25,0.00
2014-10-20,66.6,52.3,39.8,46.0,41.2,35.6,88,68,45,30.06,29.90,22,7,22,0.00
2014-10-21,66.5,50.3,36.3,46.0,40.5,33.2,93,71,45,30.15,30.05,21,8,21,0.00
2014-10-22,66.3,51.9,43.9,49.0,42.2,38.2,81,70,52,30.11,29.96,30,15,30,0.00
2014-10-23,71.4,59.0,45.2,54.0,44.8,38.3,97,63,34,29.99,29.91,16,4,16,0.02
2014-10-24,72.3,57.1,46.7,55.6,47.3,41.9,90,71,46,29.93,29.81,16,5,16,0.00
2014-10-25,64.3,54.0,38.5,44.1,38.2,31.3,77,57,34,30.10,29.93,22,7,22,0.00
2014-10-26,62.4,47.9,31.4,38.0,33.2,28.5,90,60,34,30.04,29.57,25,8,31,0.00
2014-10-27,60.5,47.9,38.6,48.1,41.0,33.9,92,77,60,29.75,29.51,25,8,25,0.01
2014-10-28,44.4,42.1,38.6,39.9,36.0,32.1,90,79,70,30.06,29.74,32,16,32,0.00
2014-10-29,48.3,40.4,35.5,35.1,31.9,29.6,83,72,55,30.20,30.05,25,8,26,0.00
2014-10-30,51.5,42.5,32.3,41.4,34.8,21.4,85,74,59,30.43,30.01,35,10,35,0.00
2014-10-31,39.4,29.8,20.4,22.8,19.5,15.7,87,67,46,30.62,30.43,25,7,25,0.00
2014-11-1,47.1,33.6,20.2,25.0,20.9,14.1,80,61,39,30.50,30.14,32,12,32,0.00
2014-11-2,59.0,46.3,36.4,38.0,31.3,24.5,72,56,42,30.14,29.82,27,14,30,0.00
2014-11-3,50.2,45.9,44.7,44.9,40.2,37.3,84,80,72,29.83,29.72,14,6,14,0.00
2014-11-4,51.4,36.4,28.7,35.3,28.4,24.1,83,73,54,30.04,29.94,20,3,28,0.00
2014-11-5,49.8,41.0,28.8,42.1,34.5,24.6,92,78,63,30.09,29.85,34,8,34,0.00
2014-11-6,39.2,33.1,26.6,33.0,29.3,23.8,92,86,74,30.37,30.08,32,10,32,0.00
2014-11-7,52.7,42.2,27.9,45.0,33.4,25.3,91,72,49,30.23,29.67,42,15,42,0.00
2014-11-8,41.7,38.4,33.2,34.5,27.5,25.8,78,65,56,30.13,29.84,48,14,48,0.00
2014-11-9,40.4,35.9,30.3,32.8,25.9,17.2,84,67,48,29.85,29.74,19,6,19,0.00
2014-11-10,31.7,27.6,23.1,26.2,23.2,19.1,91,83,63,30.03,29.56,36,16,36,0.00
2014-11-11,23.7,20.3,15.3,19.5,15.6,9.5,89,82,71,30.39,30.02,31,18,31,0.00
2014-11-12,23.0,19.6,15.3,19.2,14.8,9.7,88,81,76,30.46,30.38,26,14,26,0.00
2014-11-13,20.0,17.0,11.5,16.5,12.6,7.1,89,82,75,30.51,30.46,25,15,30,0.00
2014-11-14,18.0,7.3,3.0,11.4,3.1,-1.0,86,82,75,30.50,30.39,11,5,13,0.00
2014-11-15,23.2,17.5,4.3,20.1,14.7,0.9,98,89,85,30.41,30.18,18,4,18,0.00
2014-11-16,18.2,9.7,-3.3,15.2,5.0,-7.7,90,81,70,30.18,29.94,24,12,24,0.00
2014-11-17,12.3,8.6,5.0,8.8,3.7,-0.3,86,80,77,30.17,30.05,36,18,36,0.00
2014-11-18,22.0,15.1,8.8,17.2,9.3,3.4,83,77,67,30.15,29.80,18,11,21,0.00
2014-11-19,24.8,20.8,14.8,19.8,14.6,9.2,86,77,66,30.09,29.80,36,18,36,0.00
2014-11-20,18.1,10.8,0.1,11.1,5.4,-3.6,85,79,69,30.33,30.09,17,8,19,0.04
2014-11-21,34.4,21.1,0.7,30.3,16.3,-3.0,86,82,75,30.34,29.91,32,12,32,0.00
2014-11-22,49.1,36.4,30.6,46.8,34.3,28.3,96,92,85,29.92,29.47,22,11,24,0.00
2014-11-23,49.2,40.9,26.8,47.0,38.2,23.2,96,90,81,29.48,29.41,32,11,32,0.02
2014-11-24,26.6,17.7,13.7,23.4,13.5,9.7,89,83,79,30.05,29.42,35,23,39,0.00
2014-11-25,31.2,20.2,7.4,21.8,12.1,2.8,85,71,52,30.15,30.00,18,7,19,0.00
2014-11-26,25.7,18.7,-0.5,22.7,16.4,-4.9,93,90,83,30.53,29.98,27,12,27,0.00
2014-11-27,6.5,-3.0,-15.3,2.9,-7.1,-19.6,94,82,77,30.65,30.28,19,7,20,0.00
2014-11-28,23.0,16.1,6.5,19.7,13.0,3.0,91,88,82,30.28,29.68,20,8,20,0.00
2014-11-29,39.4,24.1,14.7,35.0,21.0,12.4,93,88,79,29.81,29.44,32,9,32,0.02
2014-11-30,18.6,7.7,2.0,14.3,2.1,-4.5,83,77,73,30.58,29.78,33,18,33,0.00
2014-12-1,10.3,0.9,-3.1,2.3,-7.9,-12.1,73,66,50,30.76,30.42,23,9,23,0.06
2014-12-2,29.1,18.7,10.3,18.9,10.6,2.6,80,70,59,30.42,30.00,26,10,26,0.00
2014-12-3,22.3,16.7,11.9,14.2,10.7,7.0,84,77,66,30.39,30.11,21,7,21,0.00
2014-12-4,30.7,24.3,17.6,23.1,17.7,12.3,86,76,60,30.36,30.10,23,10,23,0.00
2014-12-5,33.4,28.9,19.4,31.5,26.9,17.3,95,92,86,30.47,30.08,16,5,16,0.00
2014-12-6,26.5,18.6,9.7,20.8,15.0,6.8,92,86,77,30.70,30.47,12,4,12,0.00
2014-12-7,34.6,30.8,21.6,33.4,28.3,18.8,96,90,84,30.55,30.02,25,12,30,0.00
2014-12-8,36.6,28.6,19.1,34.4,24.9,14.8,95,86,81,30.41,30.01,33,16,33,0.00
2014-12-9,24.0,21.0,17.9,21.0,17.3,14.4,92,85,80,30.54,30.41,22,7,22,0.00
2014-12-10,29.5,26.0,18.6,26.9,24.0,16.2,95,92,89,30.43,30.28,19,8,19,0.00
2014-12-11,34.6,30.4,27.2,32.3,28.7,25.5,100,94,90,30.29,30.19,18,8,18,0.00
2014-12-12,40.6,35.3,34.1,37.3,32.8,31.6,92,90,88,30.22,30.12,20,10,20,0.00
2014-12-13,49.7,49.3,48.6,48.1,47.7,47.0,95,94,94,29.91,29.89,14,9,17,0.06
2014-12-14,53.1,50.2,41.1,51.7,48.9,39.8,97,95,94,29.90,29.76,20,9,20,0.00
2014-12-15,41.0,34.4,23.1,40.0,33.4,20.8,97,96,92,29.98,29.67,32,12,32,0.46
2014-12-16,23.0,14.3,10.5,21.0,11.1,6.9,92,87,84,30.40,29.98,35,18,35,0.00
2014-12-17,17.5,11.6,7.3,14.7,8.4,4.5,92,87,83,30.45,30.36,15,7,15,0.00
2014-12-18,23.7,16.7,8.9,20.8,13.7,6.3,94,88,83,30.41,30.29,10,3,10,0.00
2014-12-19,32.2,29.0,23.7,30.0,26.8,20.9,93,91,89,30.31,30.16,16,7,16,0.00
2014-12-20,32.2,31.1,29.7,30.1,28.7,27.2,93,91,88,30.17,30.04,22,9,22,0.00
2014-12-21,37.9,35.0,32.0,36.9,33.8,30.1,97,95,92,30.04,29.66,20,10,20,0.01
2014-12-22,38.9,36.9,33.5,37.9,35.8,32.1,96,95,94,29.66,29.50,23,12,23,0.18
2014-12-23,36.2,34.7,33.1,34.0,32.8,31.6,100,93,87,29.92,29.58,25,13,25,0.07
2014-12-24,33.4,31.1,27.8,31.9,29.4,25.5,96,93,89,29.92,29.62,23,11,24,0.00
2014-12-25,33.5,31.0,27.3,32.0,28.8,25.1,100,92,88,29.87,29.62,16,6,16,0.00
2014-12-26,32.2,29.6,25.3,30.6,27.4,23.5,94,91,86,30.13,29.86,22,11,22,0.00
2014-12-27,25.2,15.5,7.0,23.5,12.8,3.7,94,89,81,30.21,30.06,19,10,23,0.00
2014-12-28,17.3,12.1,5.8,15.4,9.6,3.0,92,89,79,30.44,30.16,11,3,11,0.00
2014-12-29,12.6,4.1,-10.0,7.4,-1.1,-15.1,86,79,74,30.84,30.44,18,8,18,0.00
2014-12-30,0.1,-6.0,-11.2,-6.2,-10.9,-15.6,82,79,73,30.94,30.76,19,9,19,0.00
2014-12-31,12.9,3.9,-9.8,7.5,-2.0,-14.4,83,76,68,30.77,30.10,28,13,30,0.00
2015-1-1,31.1,21.5,11.3,25.9,16.3,6.6,85,80,70,30.26,29.95,25,12,25,0.00
2015-1-2,28.1,21.3,15.5,23.1,15.5,5.5,87,78,64,30.27,29.99,22,9,22,0.00